Terminal Aerodrome Forecast
Issued by NWS Green Bay, WI

Home | Current Version | Previous Version | Text Only | Print | Product List | Glossary Off
Versions: 1 2 3 4 5 6 7 8 9 10 11 12 13 14 15 16 17 18 19 20 21 22 23 24 25 26 27 28 29 30 31 32 33

000
FTUS43 KGRB 190344 AAC
TAFGRB
TAF AMD
KGRB 190344Z 1904/1924 21009KT P6SM SKC WS015/27035KT
     FM190700 23006KT 5SM BR OVC007
     FM191200 22004KT 2SM BR OVC003
     FM191600 20005KT 5SM BR BKN007=

USA.gov is the U.S. government's official web portal to all federal, state and local government web resources and services.